Time;durP1;ratioP1;P1;durP2;ratioP2;P2;SDS_P1;SDS_P2;PMS_P1;PMS_P2;Temp;Humidity;BMP_temperature;BMP_pressure;BME280_temperature;BME280_humidity;BME280_pressure;Samples;Min_cycle;Max_cycle;Signal;HPM_P1;HPM_P2
2024/02/28 00:00:49;;;;;;;27.87;7.95;;;;;;;4.88;61.24;101285.14;123669;1099;104351;-76
2024/02/28 00:03:40;;;;;;;32.40;8.30;;;;;;;4.86;61.60;101277.23;123275;1099;104357;-77
2024/02/28 00:06:11;;;;;;;29.47;8.13;;;;;;;4.83;62.33;101277.94;124167;1099;104374;-77
2024/02/28 00:08:42;;;;;;;28.93;8.43;;;;;;;4.79;61.33;101277.61;124336;1099;104393;-77
2024/02/28 00:11:13;;;;;;;29.07;8.73;;;;;;;4.79;61.72;101272.41;123998;1102;104345;-77
2024/02/28 00:13:44;;;;;;;29.43;8.70;;;;;;;4.76;62.51;101274.80;123630;1099;104351;-76
2024/02/28 00:16:16;;;;;;;34.23;8.83;;;;;;;4.73;62.13;101272.86;123143;1099;104440;-75
2024/02/28 00:18:47;;;;;;;26.67;8.53;;;;;;;4.71;62.20;101269.27;123286;1099;104377;-76
2024/02/28 00:21:18;;;;;;;40.27;9.13;;;;;;;4.68;62.28;101275.14;123290;1099;104431;-76
2024/02/28 00:23:49;;;;;;;30.53;8.37;;;;;;;4.67;62.07;101272.42;123509;1099;104363;-77
2024/02/28 00:26:20;;;;;;;29.67;8.60;;;;;;;4.62;63.18;101272.09;123306;1099;104278;-77
2024/02/28 00:28:52;;;;;;;28.10;8.60;;;;;;;4.59;62.77;101276.18;123315;1099;104322;-77
2024/02/28 00:31:23;;;;;;;34.47;7.80;;;;;;;4.58;63.41;101284.77;123554;1099;104258;-76
2024/02/28 00:33:54;;;;;;;26.20;8.13;;;;;;;4.54;63.21;101273.25;123312;1099;104376;-76
2024/02/28 00:36:25;;;;;;;29.67;8.53;;;;;;;4.52;63.09;101268.72;123337;1099;104425;-76
2024/02/28 00:38:57;;;;;;;34.53;10.00;;;;;;;4.50;63.25;101276.41;123206;1102;104230;-77
2024/02/28 00:41:28;;;;;;;31.60;9.33;;;;;;;4.49;63.20;101269.42;123241;1102;104274;-78
2024/02/28 00:43:59;;;;;;;31.20;8.70;;;;;;;4.47;62.85;101269.31;123531;1099;104354;-77
2024/02/28 00:46:30;;;;;;;27.07;9.33;;;;;;;4.47;62.79;101264.11;123814;1099;104364;-77
2024/02/28 00:49:02;;;;;;;36.30;8.67;;;;;;;4.47;63.43;101265.79;123286;1098;104392;-77
2024/02/28 00:51:33;;;;;;;31.43;9.50;;;;;;;4.46;63.34;101274.40;123658;1099;104354;-77
2024/02/28 00:54:05;;;;;;;33.77;10.00;;;;;;;4.47;63.40;101273.59;123764;1098;104408;-77
2024/02/28 00:56:36;;;;;;;29.97;8.27;;;;;;;4.45;62.89;101269.98;123730;1099;104350;-77
2024/02/28 00:59:10;;;;;;;35.00;9.17;;;;;;;4.45;63.27;101272.58;123695;1099;104289;-76
2024/02/28 01:01:42;;;;;;;28.73;8.30;;;;;;;4.44;63.50;101268.16;123311;1099;104316;-77
2024/02/28 01:04:14;;;;;;;34.87;9.40;;;;;;;4.42;63.60;101260.26;123316;1100;105886;-77
2024/02/28 01:06:45;;;;;;;27.03;7.87;;;;;;;4.44;63.42;101268.16;123383;1099;104302;-77
2024/02/28 01:09:16;;;;;;;27.57;9.43;;;;;;;4.42;63.75;101261.96;123555;1099;104273;-77
2024/02/28 01:11:47;;;;;;;31.97;8.90;;;;;;;4.41;63.41;101258.47;123806;1099;104176;-77
2024/02/28 01:14:20;;;;;;;34.97;9.73;;;;;;;4.39;63.16;101257.44;123492;1099;104332;-77
2024/02/28 01:16:51;;;;;;;35.93;9.27;;;;;;;4.37;63.70;101258.14;123385;1099;104326;-76
2024/02/28 01:19:22;;;;;;;31.30;9.50;;;;;;;4.36;63.92;101270.20;123578;1099;104229;-77
2024/02/28 01:21:53;;;;;;;25.75;8.05;;;;;;;4.36;63.56;101258.92;123580;1099;104744;-76
2024/02/28 01:24:25;;;;;;;36.23;9.20;;;;;;;4.36;63.80;101270.20;123277;1099;104811;-77
2024/02/28 01:26:56;;;;;;;30.07;8.03;;;;;;;4.34;63.70;101264.00;123230;1099;104329;-76
2024/02/28 01:29:27;;;;;;;34.17;9.23;;;;;;;4.35;63.50;101276.22;123750;1099;104473;-76
2024/02/28 01:31:58;;;;;;;24.37;9.37;;;;;;;4.36;63.41;101261.52;123624;1099;104255;-76
2024/02/28 01:34:29;;;;;;;30.93;9.33;;;;;;;4.36;63.19;101269.31;123244;1099;104303;-76
2024/02/28 01:37:01;;;;;;;30.87;9.63;;;;;;;4.32;63.46;101256.09;123485;1099;104315;-76
2024/02/28 01:39:32;;;;;;;32.03;9.97;;;;;;;4.32;63.22;101256.09;123601;1098;104408;-77
2024/02/28 01:42:03;;;;;;;40.40;10.00;;;;;;;4.30;63.50;101261.95;123641;1099;104271;-76
2024/02/28 01:44:39;;;;;;;35.23;10.23;;;;;;;4.29;63.49;101265.38;123363;1099;104217;-76
2024/02/28 01:47:10;;;;;;;32.17;9.87;;;;;;;4.29;63.64;101270.57;123595;1099;104277;-76
2024/02/28 01:49:42;;;;;;;31.95;9.85;;;;;;;4.26;63.97;101266.04;123672;1099;104399;-76
2024/02/28 01:52:14;;;;;;;36.13;11.77;;;;;;;4.26;64.17;101266.04;123612;1099;104281;-77
2024/02/28 01:54:46;;;;;;;35.83;11.00;;;;;;;4.25;64.18;101264.22;123637;1099;104287;-77
2024/02/28 01:57:17;;;;;;;35.70;12.27;;;;;;;4.22;64.28;101269.19;123219;1100;104296;-77
2024/02/28 01:59:49;;;;;;;33.17;11.90;;;;;;;4.19;64.23;101271.59;123273;1099;104280;-76
2024/02/28 02:02:21;;;;;;;36.13;11.57;;;;;;;4.17;63.86;101274.86;123593;1099;104252;-76
2024/02/28 02:04:54;;;;;;;40.87;11.93;;;;;;;4.12;64.25;101271.92;123620;1098;104323;-77
2024/02/28 02:07:25;;;;;;;39.50;11.80;;;;;;;4.10;64.90;101268.32;123578;1099;104284;-77
2024/02/28 02:09:57;;;;;;;31.63;12.33;;;;;;;4.09;64.22;101272.59;123329;1099;104278;-77
2024/02/28 02:12:28;;;;;;;35.30;11.93;;;;;;;4.08;64.58;101275.07;123770;1099;104242;-77
2024/02/28 02:14:59;;;;;;;34.03;11.87;;;;;;;4.09;63.88;101274.30;123659;1098;104370;-77
2024/02/28 02:17:30;;;;;;;33.67;10.87;;;;;;;4.12;63.96;101278.02;123580;1099;104344;-78
2024/02/28 02:20:02;;;;;;;33.83;11.03;;;;;;;4.10;64.47;101270.91;123642;1098;104724;-77
2024/02/28 02:22:38;;;;;;;45.57;11.23;;;;;;;4.07;64.47;101274.17;123580;1099;104223;-77
2024/02/28 02:25:10;;;;;;;37.70;11.10;;;;;;;4.05;64.38;101274.84;123709;1099;104271;-77
2024/02/28 02:27:41;;;;;;;32.20;9.23;;;;;;;4.03;63.97;101272.13;123394;1099;104502;-77
2024/02/28 02:30:14;;;;;;;32.20;9.87;;;;;;;4.02;63.94;101272.02;123587;1099;104278;-77
2024/02/28 02:32:45;;;;;;;34.50;10.10;;;;;;;4.00;64.80;101269.31;123632;1099;104376;-76
2024/02/28 02:35:17;;;;;;;35.27;9.40;;;;;;;3.99;64.25;101271.79;123778;1099;104233;-76
2024/02/28 02:37:48;;;;;;;34.53;10.20;;;;;;;3.96;64.75;101268.19;123293;1099;104261;-77
2024/02/28 02:40:19;;;;;;;31.80;9.57;;;;;;;3.95;64.65;101281.95;123742;1099;104447;-76
2024/02/28 02:42:51;;;;;;;33.57;9.33;;;;;;;3.91;64.74;101274.73;123738;1099;104274;-76
2024/02/28 02:45:22;;;;;;;33.40;10.00;;;;;;;3.89;65.52;101272.80;123612;1098;104229;-75
2024/02/28 02:47:53;;;;;;;27.87;9.63;;;;;;;3.89;64.77;101278.89;123578;1099;104252;-75
2024/02/28 02:50:24;;;;;;;29.33;9.73;;;;;;;3.87;64.63;101275.28;123737;1099;104303;-76
2024/02/28 02:52:56;;;;;;;29.97;9.97;;;;;;;3.88;65.43;101278.78;123927;1099;104268;-76
2024/02/28 02:55:27;;;;;;;32.50;10.60;;;;;;;3.86;64.91;101272.58;123579;1099;104201;-75
2024/02/28 02:57:58;;;;;;;30.87;10.03;;;;;;;3.82;65.22;101274.05;123584;1099;104381;-76
2024/02/28 03:00:30;;;;;;;37.63;10.07;;;;;;;3.77;66.20;101278.89;123661;1099;104705;-76
2024/02/28 03:03:01;;;;;;;30.77;9.83;;;;;;;3.69;65.69;101269.60;123354;1099;104258;-76
2024/02/28 03:05:32;;;;;;;30.50;9.77;;;;;;;3.65;65.80;101271.88;123293;1099;104482;-76
2024/02/28 03:08:04;;;;;;;37.27;11.30;;;;;;;3.64;66.16;101275.25;123249;1102;104309;-76
2024/02/28 03:10:35;;;;;;;29.20;10.00;;;;;;;3.62;65.43;101282.03;123277;1099;104389;-76
2024/02/28 03:13:07;;;;;;;31.57;9.90;;;;;;;3.62;65.39;101279.44;123791;1099;104350;-77
2024/02/28 03:15:38;;;;;;;28.57;10.50;;;;;;;3.59;66.23;101283.58;123404;1100;104344;-77
2024/02/28 03:18:09;;;;;;;35.90;9.10;;;;;;;3.59;66.31;101291.37;123242;1099;104367;-77
2024/02/28 03:20:40;;;;;;;32.97;9.83;;;;;;;3.56;66.49;101291.13;123218;1099;104248;-78
2024/02/28 03:23:12;;;;;;;30.07;9.90;;;;;;;3.52;66.31;101299.49;123646;1099;104837;-77
2024/02/28 03:25:45;;;;;;;33.03;9.97;;;;;;;3.50;66.24;101294.96;123456;1099;104357;-78
2024/02/28 03:28:16;;;;;;;32.43;10.33;;;;;;;3.45;66.87;101299.80;123826;1099;104248;-77
2024/02/28 03:30:47;;;;;;;32.80;10.00;;;;;;;3.44;66.41;101308.35;123701;1099;104693;-76
2024/02/28 03:33:18;;;;;;;30.90;10.35;;;;;;;3.44;67.08;101316.14;123640;1099;104297;-76
2024/02/28 03:35:50;;;;;;;31.90;10.00;;;;;;;3.42;66.88;101310.83;123683;1099;104309;-76
2024/02/28 03:38:21;;;;;;;32.00;9.70;;;;;;;3.41;66.69;101310.71;123645;1099;110850;-76
2024/02/28 03:40:52;;;;;;;29.90;9.87;;;;;;;3.42;67.27;101310.83;123639;1099;104249;-76
2024/02/28 03:43:23;;;;;;;26.30;8.93;;;;;;;3.44;67.62;101307.46;123638;1099;104517;-76
2024/02/28 03:45:55;;;;;;;25.93;9.50;;;;;;;3.44;66.90;101308.35;123587;1099;104383;-77
2024/02/28 03:48:26;;;;;;;31.53;9.00;;;;;;;3.42;67.44;101300.45;123274;1099;104277;-77
2024/02/28 03:50:57;;;;;;;27.90;9.43;;;;;;;3.41;67.59;101297.73;123211;1099;104190;-76
2024/02/28 03:53:28;;;;;;;29.05;9.35;;;;;;;3.40;67.62;101302.03;123269;1099;104370;-77
2024/02/28 03:55:59;;;;;;;31.17;9.63;;;;;;;3.36;67.85;101296.48;123277;1099;104274;-77
2024/02/28 03:58:31;;;;;;;35.25;10.35;;;;;;;3.35;68.18;101295.59;123187;1099;104380;-77
2024/02/28 04:01:02;;;;;;;30.10;9.47;;;;;;;3.32;68.42;101297.02;123231;1099;104303;-78
2024/02/28 04:03:33;;;;;;;31.73;10.40;;;;;;;3.27;68.08;101300.96;123199;1099;104737;-76
2024/02/28 04:06:04;;;;;;;27.90;10.25;;;;;;;3.23;67.74;101303.31;123531;1099;104272;-76
2024/02/28 04:08:35;;;;;;;35.37;10.87;;;;;;;3.21;68.16;101307.49;123321;1100;104249;-77
2024/02/28 04:11:07;;;;;;;29.63;11.50;;;;;;;3.21;68.44;101310.09;123540;1099;104295;-77
2024/02/28 04:13:38;;;;;;;34.87;10.70;;;;;;;3.19;68.24;101306.45;123574;1099;104293;-77
2024/02/28 04:16:10;;;;;;;36.27;11.70;;;;;;;3.19;68.03;101311.63;123216;1102;104412;-77
2024/02/28 04:18:42;;;;;;;35.95;11.40;;;;;;;3.19;68.16;101315.92;123212;1099;104409;-76
2024/02/28 04:21:14;;;;;;;38.07;11.70;;;;;;;3.19;67.92;101313.33;123293;1099;104351;-76
2024/02/28 04:23:45;;;;;;;35.00;12.40;;;;;;;3.17;69.01;101320.10;123225;1102;104345;-77
2024/02/28 04:26:16;;;;;;;41.00;13.13;;;;;;;3.13;69.26;101316.38;123477;1099;104358;-76
2024/02/28 04:28:47;;;;;;;38.70;13.13;;;;;;;3.15;68.51;101313.90;123477;1099;104280;-77
2024/02/28 04:31:18;;;;;;;30.80;12.25;;;;;;;3.17;69.22;101320.10;123636;1099;104277;-77
2024/02/28 04:33:50;;;;;;;39.13;14.07;;;;;;;3.17;68.97;101315.80;123622;1099;104354;-77
2024/02/28 04:36:21;;;;;;;39.87;13.53;;;;;;;3.16;72.01;101321.77;123605;1099;104355;-77
2024/02/28 04:38:52;;;;;;;42.93;14.17;;;;;;;3.14;69.91;101317.27;123584;1099;104224;-76
2024/02/28 04:41:24;;;;;;;40.40;15.50;;;;;;;3.12;69.89;101317.14;123226;1099;104300;-76
2024/02/28 04:43:55;;;;;;;37.90;14.33;;;;;;;3.13;69.44;101320.63;123247;1101;104251;-76
2024/02/28 04:46:27;;;;;;;40.40;13.90;;;;;;;3.12;69.80;101326.62;123202;1099;104365;-77
2024/02/28 04:48:58;;;;;;;45.65;14.90;;;;;;;3.12;70.35;101330.11;123295;1099;104335;-76
2024/02/28 04:51:29;;;;;;;38.80;14.90;;;;;;;3.14;69.66;101327.64;123447;1099;104347;-77
2024/02/28 04:54:00;;;;;;;39.13;14.67;;;;;;;3.15;70.52;101326.87;123791;1099;104351;-77
2024/02/28 04:56:31;;;;;;;37.50;14.53;;;;;;;3.15;70.43;101322.57;123619;1099;104280;-77
2024/02/28 04:59:03;;;;;;;45.50;15.53;;;;;;;3.16;69.62;101332.14;123662;1098;104348;-77
2024/02/28 05:01:35;;;;;;;38.03;14.50;;;;;;;3.20;70.06;101344.58;123312;1099;104262;-76
2024/02/28 05:04:06;;;;;;;47.17;16.10;;;;;;;3.23;69.78;101346.52;123378;1099;104722;-76
2024/02/28 05:06:37;;;;;;;45.73;15.10;;;;;;;3.27;69.96;101345.06;123402;1099;104277;-77
2024/02/28 05:09:09;;;;;;;50.03;16.07;;;;;;;3.29;69.69;101346.08;123618;1099;104348;-77
2024/02/28 05:11:41;;;;;;;41.90;16.70;;;;;;;3.31;70.68;101345.42;123778;1099;104316;-77
2024/02/28 05:14:12;;;;;;;46.27;16.80;;;;;;;3.33;70.31;101353.33;124078;1099;104389;-77
2024/02/28 05:16:43;;;;;;;45.95;14.75;;;;;;;3.34;70.21;101352.55;124217;1099;104251;-77
2024/02/28 05:19:17;;;;;;;42.87;15.13;;;;;;;3.36;70.83;101359.65;124148;1099;104217;-77
2024/02/28 05:21:49;;;;;;;38.42;14.00;;;;;;;3.41;70.56;101357.41;124520;1099;104161;-78
2024/02/28 05:24:20;;;;;;;40.73;14.30;;;;;;;3.43;70.41;101363.66;123775;1098;104469;-77
2024/02/28 05:26:53;;;;;;;38.90;14.20;;;;;;;3.45;70.52;101366.37;123294;1100;104405;-77
2024/02/28 05:29:24;;;;;;;39.03;15.60;;;;;;;3.44;71.15;101370.62;123610;1099;104389;-76
2024/02/28 05:31:55;;;;;;;42.97;16.40;;;;;;;3.42;70.92;101370.51;123676;1099;104248;-77
2024/02/28 05:34:27;;;;;;;38.87;14.47;;;;;;;3.41;72.09;101373.91;123766;1099;104223;-77
2024/02/28 05:36:59;;;;;;;37.63;13.57;;;;;;;3.43;71.01;101368.84;123764;1099;104524;-78
2024/02/28 05:39:31;;;;;;;32.50;13.50;;;;;;;3.47;71.96;101372.56;123639;1099;104245;-78
2024/02/28 05:42:02;;;;;;;39.77;14.90;;;;;;;3.42;71.44;101378.29;123867;1099;104245;-78
2024/02/28 05:44:34;;;;;;;41.43;13.30;;;;;;;3.40;71.04;101372.09;123397;1099;104274;-77
2024/02/28 05:47:06;;;;;;;44.63;15.37;;;;;;;3.38;71.01;101377.93;123756;1099;104265;-77
2024/02/28 05:49:37;;;;;;;38.60;13.20;;;;;;;3.40;71.62;101382.47;123883;1099;104390;-78
2024/02/28 05:52:09;;;;;;;31.10;12.53;;;;;;;3.37;72.20;101381.33;123919;1099;104393;-79
2024/02/28 05:54:41;;;;;;;34.53;13.87;;;;;;;3.35;72.32;101382.87;124020;1099;104290;-77
2024/02/28 05:57:12;;;;;;;34.23;14.00;;;;;;;3.38;72.74;101385.71;123915;1099;104348;-76
2024/02/28 05:59:43;;;;;;;36.10;12.83;;;;;;;3.41;71.90;101384.28;123869;1099;104283;-76
2024/02/28 06:02:14;;;;;;;36.00;12.77;;;;;;;3.42;72.10;101386.08;123828;1099;104776;-77
2024/02/28 06:04:46;;;;;;;42.10;14.47;;;;;;;3.46;72.18;101386.31;124143;1099;102252;-78
2024/02/28 06:07:17;;;;;;;36.83;13.50;;;;;;;3.52;71.98;101394.58;124091;1099;104172;-77
2024/02/28 06:09:48;;;;;;;38.13;14.43;;;;;;;3.54;72.83;101391.33;124177;1099;104271;-77
2024/02/28 06:12:19;;;;;;;47.27;15.10;;;;;;;3.54;72.45;101393.03;124490;1099;104254;-77
2024/02/28 06:14:50;;;;;;;40.87;15.33;;;;;;;3.53;72.87;101392.11;124641;1099;104351;-77
2024/02/28 06:17:25;;;;;;;37.00;14.60;;;;;;;3.55;73.69;101397.42;124742;1098;104221;-79
2024/02/28 06:19:56;;;;;;;41.17;14.80;;;;;;;3.54;73.29;101396.52;124383;1099;104179;-77
2024/02/28 06:22:28;;;;;;;43.33;15.67;;;;;;;3.56;72.88;101397.54;124178;1099;104176;-78
2024/02/28 06:24:59;;;;;;;37.50;14.77;;;;;;;3.65;73.19;101399.06;124300;1099;104230;-78
2024/02/28 06:27:33;;;;;;;40.47;14.97;;;;;;;3.69;73.12;101408.88;124289;1099;104271;-79
2024/02/28 06:30:22;;;;;;;43.17;15.43;;;;;;;3.75;72.83;101404.16;124172;1099;104269;-80
2024/02/28 06:32:53;;;;;;;43.10;16.97;;;;;;;3.81;73.12;101403.75;124953;1099;104319;-80
2024/02/28 06:35:24;;;;;;;44.27;15.97;;;;;;;3.89;72.46;101407.83;124770;1098;104245;-79
2024/02/28 06:37:56;;;;;;;46.60;17.13;;;;;;;3.94;73.56;101406.48;124649;1099;104204;-78
2024/02/28 06:40:30;;;;;;;42.37;16.50;;;;;;;4.01;73.58;101405.28;124500;1099;104255;-78
2024/02/28 06:43:01;;;;;;;49.27;16.77;;;;;;;4.05;73.05;101417.69;124496;1098;105532;-80
2024/02/28 06:45:32;;;;;;;45.90;16.30;;;;;;;4.04;73.13;101415.91;124500;1099;104203;-78
2024/02/28 06:48:06;;;;;;;41.50;16.60;;;;;;;4.06;73.42;101417.81;124491;1099;104271;-78
2024/02/28 06:50:37;;;;;;;40.65;15.93;;;;;;;4.07;73.85;101414.44;124358;1099;104222;-76
2024/02/28 06:53:09;;;;;;;41.63;16.23;;;;;;;4.12;73.02;101414.79;124605;1099;104345;-80
2024/02/28 06:55:40;;;;;;;44.60;16.93;;;;;;;4.18;73.58;101411.77;125050;1099;102870;-77
2024/02/28 06:58:11;;;;;;;39.37;16.03;;;;;;;4.18;74.43;101407.46;125213;1099;103157;-82
2024/02/28 07:00:43;;;;;;;41.07;16.77;;;;;;;4.20;73.46;101415.38;124979;1099;104185;-77
2024/02/28 07:03:14;;;;;;;42.13;16.97;;;;;;;4.24;74.02;101418.32;125079;1099;104271;-79
2024/02/28 07:05:45;;;;;;;40.60;16.83;;;;;;;4.30;74.10;101428.25;125256;1099;102313;-78
2024/02/28 07:08:17;;;;;;;43.35;17.30;;;;;;;4.33;74.14;101428.48;124990;1099;104245;-78
2024/02/28 07:10:53;;;;;;;51.00;18.33;;;;;;;4.34;73.65;101432.01;124826;1099;102271;-80
2024/02/28 07:13:25;;;;;;;47.43;17.13;;;;;;;4.41;73.64;101429.06;124362;1099;104172;-78
2024/02/28 07:15:57;;;;;;;44.47;18.23;;;;;;;4.42;73.54;101430.88;124669;1099;104249;-77
2024/02/28 07:18:29;;;;;;;44.43;18.97;;;;;;;4.46;73.68;101431.23;124690;1099;104223;-76
2024/02/28 07:21:01;;;;;;;40.97;15.77;;;;;;;4.51;73.96;101434.17;124739;1099;104323;-79
2024/02/28 07:23:33;;;;;;;44.43;17.37;;;;;;;4.54;73.90;101436.11;124764;1099;104268;-81
2024/02/28 07:26:05;;;;;;;41.30;16.40;;;;;;;4.57;73.84;101441.54;124982;1099;104137;-77
2024/02/28 07:28:36;;;;;;;43.23;16.37;;;;;;;4.58;73.21;101444.25;124978;1099;104277;-78
2024/02/28 07:31:08;;;;;;;43.43;17.07;;;;;;;4.66;73.87;101442.23;124716;1099;104242;-78
2024/02/28 07:33:40;;;;;;;43.95;18.80;;;;;;;4.70;73.45;101441.64;124481;1099;104169;-77
2024/02/28 07:36:12;;;;;;;44.87;18.23;;;;;;;4.71;73.80;101438.27;124795;1098;102926;-77
2024/02/28 07:38:45;;;;;;;42.03;15.97;;;;;;;4.80;74.59;101443.22;126997;1098;102785;-79
2024/02/28 07:41:16;;;;;;;38.60;16.37;;;;;;;4.80;73.64;101444.14;127049;1098;102587;-80
2024/02/28 07:43:47;;;;;;;39.57;16.57;;;;;;;4.83;73.84;101444.38;126889;1098;102641;-78
2024/02/28 07:46:18;;;;;;;43.60;18.03;;;;;;;4.86;73.61;101446.27;124332;1102;104269;-78
2024/02/28 07:48:50;;;;;;;49.13;17.93;;;;;;;4.91;73.61;101447.54;124722;1099;104233;-79
2024/02/28 07:51:22;;;;;;;43.90;19.03;;;;;;;4.91;73.91;101447.54;124948;1099;104275;-74
2024/02/28 07:53:54;;;;;;;41.30;18.47;;;;;;;4.96;73.67;101453.97;124419;1099;104198;-77
2024/02/28 07:56:27;;;;;;;39.00;17.43;;;;;;;5.01;73.77;101454.31;124797;1099;104219;-79
2024/02/28 07:59:00;;;;;;;41.45;17.07;;;;;;;5.09;73.96;101457.48;124848;1099;104245;-78
2024/02/28 08:01:31;;;;;;;38.90;15.97;;;;;;;5.15;73.75;101447.52;124879;1099;104235;-80
2024/02/28 08:04:03;;;;;;;37.50;15.53;;;;;;;5.20;73.85;101454.88;125067;1099;104173;-76
2024/02/28 08:06:35;;;;;;;34.17;13.97;;;;;;;5.30;73.55;101459.04;124839;1099;102155;-75
2024/02/28 08:09:11;;;;;;;30.93;11.97;;;;;;;5.36;73.88;101463.76;124629;1099;104726;-77
2024/02/28 08:11:43;;;;;;;30.90;12.30;;;;;;;5.36;72.96;101464.69;125259;1098;104364;-76
2024/02/28 08:14:15;;;;;;;26.37;11.20;;;;;;;5.47;73.77;101462.86;124680;1099;103511;-77
2024/02/28 08:16:51;;;;;;;25.57;10.77;;;;;;;5.55;73.21;101455.59;124627;1099;104243;-78
2024/02/28 08:19:25;;;;;;;23.80;10.07;;;;;;;5.60;73.72;101458.53;124492;1099;104263;-75
2024/02/28 08:21:56;;;;;;;22.77;9.43;;;;;;;5.69;73.67;101465.28;124707;1099;104191;-76
2024/02/28 08:24:28;;;;;;;23.43;9.57;;;;;;;5.74;74.03;101469.11;124416;1099;104369;-75
2024/02/28 08:26:59;;;;;;;24.10;9.40;;;;;;;5.76;73.33;101471.81;124315;1099;104245;-74
2024/02/28 08:29:35;;;;;;;21.03;9.60;;;;;;;5.78;73.36;101469.32;124604;1099;104187;-73
2024/02/28 08:32:10;;;;;;;20.30;8.70;;;;;;;5.80;73.61;101465.11;124411;1099;104175;-76
2024/02/28 08:34:46;;;;;;;21.27;8.83;;;;;;;5.88;73.52;101464.87;125045;1099;104270;-79
2024/02/28 08:37:18;;;;;;;20.90;7.83;;;;;;;5.98;73.59;101463.83;124685;1100;102400;-78
2024/02/28 08:39:49;;;;;;;15.83;7.70;;;;;;;6.03;73.26;101459.87;124600;1099;102470;-76
2024/02/28 08:42:20;;;;;;;15.37;7.20;;;;;;;6.11;73.25;101461.30;124944;1098;102146;-77
2024/02/28 08:44:54;;;;;;;19.80;8.13;;;;;;;6.16;73.11;101461.61;125098;1099;104270;-77
2024/02/28 08:47:27;;;;;;;18.70;7.77;;;;;;;6.21;73.33;101467.14;124628;1099;104230;-78
2024/02/28 08:49:59;;;;;;;20.80;8.30;;;;;;;6.23;73.15;101461.24;125140;1098;104277;-79
2024/02/28 08:52:30;;;;;;;16.63;7.00;;;;;;;6.17;72.80;101462.50;124430;1099;104345;-79
2024/02/28 08:55:02;;;;;;;17.17;7.43;;;;;;;6.14;72.96;101467.50;124399;1099;102935;-76
2024/02/28 08:57:34;;;;;;;16.17;7.60;;;;;;;6.20;73.25;101457.50;124716;1099;101992;-77
2024/02/28 09:00:08;;;;;;;16.30;6.60;;;;;;;6.26;73.17;101453.64;124990;1099;104348;-79
2024/02/28 09:02:41;;;;;;;17.20;6.47;;;;;;;6.28;73.00;101458.95;124712;1098;104379;-78
2024/02/28 09:05:13;;;;;;;19.07;6.93;;;;;;;6.26;72.90;101463.13;124737;1099;104274;-76
2024/02/28 09:07:46;;;;;;;16.17;7.00;;;;;;;6.32;73.07;101458.34;124201;1099;104169;-78
2024/02/28 09:10:21;;;;;;;17.10;7.43;;;;;;;6.28;72.95;101458.95;124906;1099;104216;-80
2024/02/28 09:15:49;;;;;;;14.97;6.77;;;;;;;6.33;72.96;101454.95;125037;1102;104278;-76
2024/02/28 09:18:21;;;;;;;16.70;7.20;;;;;;;6.42;72.95;101452.04;124935;1105;104162;-79
2024/02/28 09:20:53;;;;;;;18.67;6.93;;;;;;;6.52;73.21;101443.16;124370;1102;104181;-79
2024/02/28 09:23:24;;;;;;;17.63;7.77;;;;;;;6.61;73.15;101444.66;124722;1105;102127;-79
2024/02/28 09:25:56;;;;;;;18.10;7.27;;;;;;;6.69;73.13;101442.57;124997;1102;104325;-79
2024/02/28 09:28:27;;;;;;;19.57;7.47;;;;;;;6.72;72.60;101447.98;124814;1102;104188;-78
2024/02/28 09:30:58;;;;;;;17.60;7.70;;;;;;;6.65;72.81;101446.69;125027;1102;104140;-78
2024/02/28 09:33:29;;;;;;;19.10;7.87;;;;;;;6.72;72.52;101447.98;124742;1102;104249;-78
2024/02/28 09:36:06;;;;;;;15.32;6.78;;;;;;;6.80;72.79;101453.72;125005;1102;103540;-79
2024/02/28 09:38:39;;;;;;;15.60;7.70;;;;;;;6.83;72.68;101451.31;124536;1102;104284;-77
2024/02/28 09:41:15;;;;;;;18.95;7.67;;;;;;;6.87;72.78;101449.80;124646;1102;102706;-78
2024/02/28 09:43:48;;;;;;;20.37;8.20;;;;;;;6.90;72.91;101448.28;124520;1102;104156;-80
2024/02/28 09:46:20;;;;;;;21.20;7.87;;;;;;;6.94;72.68;101452.02;124716;1102;101896;-78
2024/02/28 09:48:53;;;;;;;24.50;8.40;;;;;;;7.02;72.77;101440.36;124582;1102;104370;-79
2024/02/28 09:51:27;;;;;;;19.70;7.60;;;;;;;7.15;72.96;101437.75;124791;1102;104163;-78
2024/02/28 09:54:00;;;;;;;20.37;7.62;;;;;;;7.22;72.39;101445.98;125756;1101;103013;-77
2024/02/28 09:56:31;;;;;;;19.13;7.30;;;;;;;7.33;72.73;101442.34;125690;1102;102824;-78
2024/02/28 09:59:06;;;;;;;17.23;7.00;;;;;;;7.44;72.44;101441.31;125789;1102;102555;-78
2024/02/28 10:01:43;;;;;;;15.67;7.17;;;;;;;7.55;72.78;101440.27;124146;1102;104220;-77
2024/02/28 10:04:15;;;;;;;17.90;6.83;;;;;;;7.72;72.33;101440.44;124496;1102;104195;-77
2024/02/28 10:06:48;;;;;;;16.10;7.40;;;;;;;7.88;72.50;101437.05;124424;1102;105541;-78
2024/02/28 10:09:19;;;;;;;15.80;6.85;;;;;;;8.05;72.44;101430.24;124470;1101;104210;-77
2024/02/28 10:11:51;;;;;;;17.13;6.83;;;;;;;8.15;72.80;101435.23;124627;1102;102783;-76
2024/02/28 10:14:22;;;;;;;15.80;6.90;;;;;;;8.18;71.74;101439.72;124327;1102;104382;-77
2024/02/28 10:16:54;;;;;;;13.53;6.47;;;;;;;8.19;71.90;101434.59;124397;1102;104261;-77
2024/02/28 10:19:26;;;;;;;15.80;6.83;;;;;;;8.20;72.05;101433.78;124224;1102;104095;-78
2024/02/28 10:21:58;;;;;;;14.97;6.83;;;;;;;8.22;71.79;101432.16;124487;1102;104836;-78
2024/02/28 10:24:29;;;;;;;15.20;6.77;;;;;;;8.26;71.47;101434.16;124682;1102;104209;-79
2024/02/28 10:27:03;;;;;;;14.37;5.90;;;;;;;8.32;71.82;101431.02;124422;1102;102348;-78
2024/02/28 10:29:34;;;;;;;;;;;;;;;8.43;70.85;101429.01;124356;1102;104251;-78
2024/02/28 10:32:30;;;;;;;15.00;6.53;;;;;;;8.57;71.30;101427.24;124741;1102;104239;-78
2024/02/28 10:35:25;;;;;;;16.13;6.90;;;;;;;8.70;71.12;101415.80;124979;1102;104234;-79
2024/02/28 10:37:58;;;;;;;14.33;6.70;;;;;;;8.81;71.35;101412.08;125113;1102;104149;-78
2024/02/28 10:40:30;;;;;;;16.57;5.87;;;;;;;8.89;70.91;101408.17;124730;1102;104342;-78
2024/02/28 10:43:03;;;;;;;15.53;6.10;;;;;;;9.01;71.17;101389.66;124578;1102;104057;-78
2024/02/28 10:45:36;;;;;;;14.10;6.30;;;;;;;8.95;70.13;101392.81;124655;1102;104202;-78
2024/02/28 10:48:09;;;;;;;13.20;5.90;;;;;;;9.04;70.95;101394.14;124736;1102;103459;-79
2024/02/28 10:50:41;;;;;;;17.20;6.80;;;;;;;9.06;70.14;101388.19;124767;1102;102990;-78
2024/02/28 10:53:15;;;;;;;15.60;6.60;;;;;;;9.03;70.17;101392.36;124739;1099;103592;-79
2024/02/28 10:55:52;;;;;;;16.63;7.13;;;;;;;9.08;70.28;101386.55;124747;1102;104339;-78
2024/02/28 10:58:30;;;;;;;14.37;6.30;;;;;;;9.14;70.67;101379.03;124838;1102;104226;-79
2024/02/28 11:01:03;;;;;;;11.23;5.93;;;;;;;9.20;70.55;101375.86;124737;1099;104294;-77
2024/02/28 11:03:44;;;;;;;17.90;7.13;;;;;;;9.21;70.25;101369.82;124774;1102;104280;-79
2024/02/28 11:06:22;;;;;;;14.23;6.00;;;;;;;9.24;70.20;101362.13;125533;1102;103369;-78
2024/02/28 11:08:56;;;;;;;17.20;6.97;;;;;;;9.28;70.01;101350.98;124706;1099;107907;-79
2024/02/28 11:11:40;;;;;;;19.15;7.03;;;;;;;9.35;69.86;101350.52;124738;1099;104369;-78
2024/02/28 11:14:17;;;;;;;19.35;7.42;;;;;;;9.30;69.32;101343.21;126266;1099;102458;-79
2024/02/28 11:16:49;;;;;;;14.70;6.77;;;;;;;9.37;70.39;101341.85;126151;1099;102578;-78
2024/02/28 11:19:23;;;;;;;16.10;6.83;;;;;;;9.34;69.76;101347.81;126111;1099;119403;-79
2024/02/28 11:21:57;;;;;;;17.20;7.47;;;;;;;9.26;69.89;101351.73;124556;1102;104310;-78
2024/02/28 11:24:32;;;;;;;19.23;8.10;;;;;;;9.30;69.70;101340.59;124734;1099;104248;-78
2024/02/28 11:27:05;;;;;;;17.30;6.57;;;;;;;9.32;69.72;101344.22;124726;1099;104636;-79
2024/02/28 11:29:37;;;;;;;16.40;6.70;;;;;;;9.35;69.41;101336.53;124697;1098;104172;-77
2024/02/28 11:32:10;;;;;;;13.10;5.77;;;;;;;9.41;69.55;101341.17;124884;1099;104399;-79